VHHHVDPP

Guest
Details From VHHH - Hong Kong Intl
To VDPP - Phnom Penh Intl
Flight Number -
Tags decoded
Created
Modified
Stats Distance 843 nm / 1,562 km
Max Altitude 0 ft / 0 m
Waypoints 4
Social Downloads 0
Likes 0
Share VATSIM

Download

Looking for another format? Having issues loading an existing format? Contact us
Advertisement - Login to hide

Notes

Requested: VHHH VIBUN B329 PNH VDPP

Route

VHHH VIBUN B329 PNH VDPP

ID Type Via Altitude Latitude Longitude Leg Dist Tot Dist Heading (true) Name
O VHHH APT - 0 ft / 0 m 22.30899˚ 113.91461˚ - 0 nm - Hong Kong Intl
VIBUN FIX - 0 ft / 0 m 13.79667˚ 105.43167˚ 703 nm 703 nm 225° / 222° -
PNH VOR B329 (AWY-LO) 0 ft / 0 m 11.54667˚ 104.84167˚ 139 nm 843 nm 194° / 194° PHNOM PENH VOR-DME
O VDPP APT - 0 ft / 0 m 11.54654˚ 104.84414˚ 0 nm 843 nm 93° / 93° Phnom Penh Intl

Altitude Profile

Advertisement - Login to hide

Weather


0- 5 10 15 20 25 30 35+ Temperature / ° C

Clouds and Precipitation
Forecast for 2018-05-23 06:00 UTC. Updated 3 hours ago

Ground ~20,000 ft ~40,000 ft Winds

VHHH

Details ICAO VHHH (HKG)
Name Hong Kong Intl
Region Hong Kong
Timezone Unknown (UTC+0.0)
Stats Elevation 28 ft / 9 m (AMSL)
Location 22.308995° 113.914610°
Runways 2
Magnetic Variation 2.850° W

METAR

VHHH 230800Z 24010KT 9999 FEW030 34/22 Q1007 NOSIG

Decode

TAF

TAF VHHH 230500Z 2306/2412 VRB05KT 9999 FEW030 TX36/2307Z TX34/2406Z TN28/2321Z TEMPO 2306/2312 21010KT TEMPO 2403/2412 21010KT

Decode

Departure Runways

ID Width Length Bearing (true) Bearing (mag) Surface Threshold Offset Overrun Length
07L 197 ft / 60 m 12,457 ft / 3,797 m 70.79° 73.64° Asphalt 564 ft / 172 m 866 ft / 264 m
07R 197 ft / 60 m 12,458 ft / 3,797 m 70.79° 73.64° Asphalt 525 ft / 160 m 886 ft / 270 m
25L 197 ft / 60 m 12,458 ft / 3,797 m 250.80° 253.65° Asphalt 0 ft / 0 m 840 ft / 256 m
25R 197 ft / 60 m 12,457 ft / 3,797 m 250.80° 253.65° Asphalt 581 ft / 177 m 860 ft / 262 m

VDPP

Details ICAO VDPP (PNH)
Name Phnom Penh Intl
Region Cambodia
Timezone Asia/Phnom_Penh (UTC+7.0)
Stats Elevation 40 ft / 12 m (AMSL)
Location 11.546542° 104.844142°
Runways 1
Magnetic Variation 0.500° W

METAR

VDPP 230800Z VRB03KT 9999 SCT017 FEW020TCU 32/23 Q1006

Decode

TAF

TAF VDPP 230500Z 2306/2324 07009KT 9999 SCT017 SCT040 TEMPO 2306/2312 5000 TSRA SCT015 FEW017CB BKN040

Decode

Destination Runways

ID Width Length Bearing (true) Bearing (mag) Surface Threshold Offset Overrun Length
05 144 ft / 44 m 9,815 ft / 2,992 m 45.61° 46.11° Asphalt 400 ft / 122 m 0 ft / 0 m
23 144 ft / 44 m 9,815 ft / 2,992 m 225.61° 226.11° Asphalt 492 ft / 150 m 0 ft / 0 m

Approach Navaids

Runway Type Ident Frequency Range Bearing (true) Bearing (mag) Slope Elevation
23 Localiser IPNP 109.70 MHz 18 nm / 33 km 225.62° 226.12° - 40 ft / 12 m (AMSL)
23 Glidescope IPNP 109.70 MHz 10 nm / 19 km 225.61° 226.11° 3.00° 37 ft / 11 m (AMSL)

Popular Alternatives